Time;durP1;ratioP1;P1;durP2;ratioP2;P2;SDS_P1;SDS_P2;PMS_P1;PMS_P2;Temp;Humidity;BMP_temperature;BMP_pressure;BME280_temperature;BME280_humidity;BME280_pressure;Samples;Min_cycle;Max_cycle;Signal;HPM_P1;HPM_P2
2022/09/28 00:00:40;;;;;;;3.00;1.60;;;8.70;43.70;;;;;;7381425;19;20046;-70
2022/09/28 00:03:09;;;;;;;2.60;1.45;;;8.70;43.70;;;;;;7362441;19;20021;-70
2022/09/28 00:05:39;;;;;;;2.47;1.25;;;8.70;43.50;;;;;;7362302;19;20265;-70
2022/09/28 00:08:09;;;;;;;1.20;0.90;;;8.80;43.30;;;;;;7351627;19;20015;-70
2022/09/28 00:10:40;;;;;;;2.25;1.25;;;8.80;43.80;;;;;;7358747;19;20471;-70
2022/09/28 00:13:10;;;;;;;2.55;1.20;;;8.80;43.70;;;;;;7362594;19;20704;-70
2022/09/28 00:15:44;;;;;;;3.05;1.10;;;8.80;44.20;;;;;;7382672;19;20034;-70
2022/09/28 00:18:14;;;;;;;2.40;1.30;;;8.80;44.70;;;;;;7353172;19;20014;-70
2022/09/28 00:20:43;;;;;;;1.92;1.30;;;8.80;44.70;;;;;;7358426;19;20022;-70
2022/09/28 00:23:13;;;;;;;5.32;1.63;;;8.90;45.00;;;;;;7361202;19;20003;-70
2022/09/28 00:25:43;;;;;;;2.95;1.48;;;8.90;45.10;;;;;;7361554;19;20034;-71
2022/09/28 00:28:13;;;;;;;2.60;1.48;;;8.90;45.20;;;;;;7353328;19;20017;-70
2022/09/28 00:30:45;;;;;;;3.80;1.80;;;8.80;45.40;;;;;;7378607;19;20362;-70
2022/09/28 00:33:15;;;;;;;2.67;1.60;;;8.80;45.60;;;;;;7361424;19;20017;-70
2022/09/28 00:35:45;;;;;;;4.28;1.60;;;8.90;45.70;;;;;;7360622;19;20010;-70
2022/09/28 00:38:15;;;;;;;4.88;1.30;;;8.90;46.10;;;;;;7351897;19;20899;-70
2022/09/28 00:40:45;;;;;;;1.58;1.08;;;8.90;46.30;;;;;;7359023;19;20022;-70
2022/09/28 00:43:20;;;;;;;1.98;1.20;;;8.90;46.30;;;;;;7361175;19;20043;-70
2022/09/28 00:45:58;;;;;;;2.20;1.05;;;8.90;46.20;;;;;;7371665;19;20035;-70
2022/09/28 00:48:30;;;;;;;1.40;1.00;;;9.00;45.90;;;;;;7374226;19;20031;-69
2022/09/28 00:51:04;;;;;;;2.25;1.00;;;9.00;45.80;;;;;;7357174;19;20021;-69
2022/09/28 00:53:36;;;;;;;1.65;0.90;;;9.00;45.80;;;;;;7360832;19;20059;-69
2022/09/28 00:56:10;;;;;;;2.95;1.30;;;9.00;45.50;;;;;;7360190;19;20038;-70
2022/09/28 00:58:42;;;;;;;2.10;1.20;;;9.10;45.60;;;;;;7356428;19;20056;-69
2022/09/28 01:01:15;;;;;;;1.63;1.10;;;9.10;46.20;;;;;;7365234;19;20793;-69
2022/09/28 01:03:47;;;;;;;3.13;1.05;;;9.10;46.10;;;;;;7389607;19;20018;-70
2022/09/28 01:06:20;;;;;;;1.10;0.98;;;9.00;46.00;;;;;;7363013;19;20011;-70
2022/09/28 01:08:53;;;;;;;2.72;1.10;;;9.10;46.90;;;;;;7363284;19;20025;-70
2022/09/28 01:11:23;;;;;;;2.05;1.10;;;9.00;47.20;;;;;;7363435;19;20480;-70
2022/09/28 01:13:55;;;;;;;2.60;1.27;;;9.00;47.60;;;;;;7367471;19;20010;-70
2022/09/28 01:16:37;;;;;;;3.15;1.40;;;9.00;48.30;;;;;;7362735;19;20010;-70
2022/09/28 01:19:24;;;;;;;4.75;1.40;;;9.00;48.80;;;;;;7364042;19;20011;-68
2022/09/28 01:22:05;;;;;;;2.22;1.60;;;9.00;49.40;;;;;;7365707;19;20034;-69
2022/09/28 01:24:43;;;;;;;1.95;1.50;;;9.00;49.60;;;;;;7389744;19;20062;-69
2022/09/28 01:27:22;;;;;;;3.03;1.70;;;9.00;49.80;;;;;;7357325;19;20018;-69
2022/09/28 01:29:59;;;;;;;4.47;1.92;;;9.00;50.10;;;;;;7365666;19;20046;-69
2022/09/28 01:32:37;;;;;;;3.58;1.95;;;9.00;50.50;;;;;;7365138;19;20078;-69
2022/09/28 01:35:13;;;;;;;3.55;1.90;;;9.00;50.70;;;;;;7367505;19;20028;-69
2022/09/28 01:37:50;;;;;;;4.28;1.90;;;9.00;51.30;;;;;;7355693;19;20010;-69
2022/09/28 01:40:22;;;;;;;2.85;1.80;;;9.00;51.30;;;;;;7365673;19;20022;-69
2022/09/28 01:42:59;;;;;;;2.67;1.48;;;9.00;51.70;;;;;;7366075;19;20478;-70
2022/09/28 01:45:34;;;;;;;3.00;1.48;;;9.00;51.80;;;;;;7388310;19;20011;-69
2022/09/28 01:48:08;;;;;;;1.95;1.58;;;9.00;52.30;;;;;;7357183;19;20046;-69
2022/09/28 01:50:43;;;;;;;7.65;1.85;;;9.00;52.50;;;;;;7363570;19;20825;-69
2022/09/28 01:53:18;;;;;;;3.33;1.70;;;9.00;52.40;;;;;;7366880;19;20010;-70
2022/09/28 01:55:51;;;;;;;2.85;1.50;;;9.10;53.20;;;;;;7367006;19;20010;-69
2022/09/28 01:58:29;;;;;;;2.97;1.75;;;9.10;53.20;;;;;;7356898;19;20010;-69
2022/09/28 02:01:05;;;;;;;3.70;1.58;;;9.10;53.10;;;;;;7362362;19;20014;-69
2022/09/28 02:03:41;;;;;;;4.32;1.52;;;9.10;53.50;;;;;;7387619;19;20417;-69
2022/09/28 02:06:17;;;;;;;1.92;1.10;;;9.10;53.20;;;;;;7364738;19;20010;-69
2022/09/28 02:08:50;;;;;;;4.47;2.00;;;9.20;53.20;;;;;;7361378;19;20940;-69
2022/09/28 02:11:22;;;;;;;2.63;1.20;;;9.20;53.40;;;;;;7360633;19;20374;-69
2022/09/28 02:14:00;;;;;;;2.65;1.13;;;9.30;53.20;;;;;;7365106;19;20038;-69
2022/09/28 02:16:36;;;;;;;3.20;1.10;;;9.30;52.60;;;;;;7359906;19;21340;-69
2022/09/28 02:19:06;;;;;;;3.13;1.17;;;9.40;51.60;;;;;;7363060;19;20018;-70
2022/09/28 02:21:43;;;;;;;4.72;1.35;;;9.40;51.30;;;;;;7385132;19;20049;-69
2022/09/28 02:24:17;;;;;;;3.78;1.13;;;9.50;50.90;;;;;;7364230;19;20003;-69
2022/09/28 02:26:53;;;;;;;5.63;2.00;;;9.50;50.80;;;;;;7357542;19;20015;-69
2022/09/28 02:29:25;;;;;;;5.00;1.35;;;9.60;50.50;;;;;;7361662;19;20015;-69
2022/09/28 02:31:55;;;;;;;2.40;1.20;;;9.60;50.10;;;;;;7363780;19;20011;-69
2022/09/28 02:34:25;;;;;;;3.58;1.17;;;9.70;49.20;;;;;;7365173;19;20010;-69
2022/09/28 02:36:55;;;;;;;2.42;1.27;;;9.70;48.90;;;;;;7356760;19;20035;-69
2022/09/28 02:39:25;;;;;;;3.08;1.23;;;9.80;48.70;;;;;;7382888;19;20015;-69
2022/09/28 02:42:03;;;;;;;6.05;1.35;;;9.80;48.40;;;;;;7363945;19;20025;-69
2022/09/28 02:45:01;;;;;;;5.95;1.92;;;9.80;47.40;;;;;;7364183;19;20011;-69
2022/09/28 02:47:53;;;;;;;3.72;1.05;;;9.80;47.20;;;;;;7355116;19;20015;-69
2022/09/28 02:50:34;;;;;;;3.67;1.08;;;9.80;47.20;;;;;;7363410;19;20011;-70
2022/09/28 02:53:21;;;;;;;2.75;1.35;;;9.90;47.00;;;;;;7365022;19;20014;-69
2022/09/28 02:56:07;;;;;;;4.35;1.33;;;9.90;46.50;;;;;;7364978;19;20015;-69
2022/09/28 02:58:44;;;;;;;3.65;1.27;;;9.90;46.90;;;;;;7356699;19;20014;-70
2022/09/28 03:01:24;;;;;;;4.18;1.58;;;9.90;47.40;;;;;;7361631;19;20010;-70
2022/09/28 03:03:59;;;;;;;4.20;1.30;;;9.80;48.60;;;;;;7363868;19;20449;-70
2022/09/28 03:06:33;;;;;;;4.45;1.50;;;9.80;49.40;;;;;;7378064;19;20018;-70
2022/09/28 03:09:10;;;;;;;7.70;1.40;;;9.80;49.20;;;;;;7361447;19;20006;-70
2022/09/28 03:11:44;;;;;;;4.38;1.55;;;9.80;50.00;;;;;;7361583;19;20533;-70
2022/09/28 03:14:14;;;;;;;4.88;1.80;;;9.80;50.20;;;;;;7364146;19;20013;-70
2022/09/28 03:16:48;;;;;;;5.03;1.33;;;9.80;50.20;;;;;;7356863;19;20010;-70
2022/09/28 03:19:18;;;;;;;2.85;1.35;;;9.80;50.10;;;;;;7361230;19;20007;-69
2022/09/28 03:21:48;;;;;;;6.85;1.40;;;9.80;49.90;;;;;;7381396;19;20022;-70
2022/09/28 03:24:18;;;;;;;4.13;2.15;;;9.80;49.40;;;;;;7363657;19;20029;-70
2022/09/28 03:26:48;;;;;;;3.00;1.10;;;9.90;49.00;;;;;;7354989;19;20431;-70
2022/09/28 03:29:19;;;;;;;4.80;1.88;;;9.80;49.30;;;;;;7361051;19;20010;-70
2022/09/28 03:31:51;;;;;;;5.43;1.27;;;9.90;50.00;;;;;;7362357;19;20022;-70
2022/09/28 03:34:21;;;;;;;7.95;1.52;;;9.80;50.10;;;;;;7363491;19;20010;-70
2022/09/28 03:36:51;;;;;;;1.63;0.98;;;9.70;50.10;;;;;;7354946;19;20017;-71
2022/09/28 03:39:20;;;;;;;2.33;0.70;;;9.50;50.60;;;;;;7381440;19;20117;-70
2022/09/28 03:41:50;;;;;;;2.25;0.40;;;9.40;49.10;;;;;;7360968;19;20031;-70
2022/09/28 03:44:20;;;;;;;1.65;0.40;;;9.40;46.60;;;;;;7363583;19;20014;-70
2022/09/28 03:46:53;;;;;;;0.82;0.60;;;9.30;47.60;;;;;;7355826;19;20014;-71
2022/09/28 03:49:22;;;;;;;2.85;0.70;;;9.30;47.90;;;;;;7358891;19;20121;-70
2022/09/28 03:51:52;;;;;;;2.55;0.63;;;9.30;48.80;;;;;;7361774;19;20022;-71
2022/09/28 03:54:22;;;;;;;2.67;0.70;;;9.30;49.50;;;;;;7382589;19;20030;-71
2022/09/28 03:56:52;;;;;;;1.88;0.70;;;9.30;49.80;;;;;;7380037;19;20011;-71
2022/09/28 03:59:22;;;;;;;4.50;0.80;;;9.30;50.70;;;;;;7387077;19;19998;-70
2022/09/28 04:01:54;;;;;;;5.28;1.00;;;9.30;51.10;;;;;;7388238;19;20043;-70
2022/09/28 04:04:24;;;;;;;2.40;1.00;;;9.20;51.30;;;;;;7389955;19;20018;-70
2022/09/28 04:06:54;;;;;;;2.83;0.90;;;9.20;51.70;;;;;;7382282;19;20021;-70
2022/09/28 04:09:24;;;;;;;6.68;0.95;;;9.30;52.30;;;;;;7386197;19;20024;-71
2022/09/28 04:11:53;;;;;;;5.57;1.23;;;9.30;52.50;;;;;;7385997;19;20018;-70
2022/09/28 04:14:33;;;;;;;3.92;1.00;;;9.20;52.70;;;;;;7389419;19;20006;-70
2022/09/28 04:17:06;;;;;;;4.53;1.10;;;9.20;51.30;;;;;;7381067;19;20544;-70
2022/09/28 04:19:35;;;;;;;4.70;1.20;;;9.20;51.30;;;;;;7385225;19;20010;-70
2022/09/28 04:22:05;;;;;;;5.68;1.45;;;9.30;52.10;;;;;;7388676;19;20019;-70
2022/09/28 04:24:35;;;;;;;2.22;1.02;;;9.20;52.00;;;;;;7387579;19;20019;-71
2022/09/28 04:29:47;;;;;;;2.38;1.20;;;9.20;51.80;;;;;;7386432;19;20486;-70
2022/09/28 04:32:20;;;;;;;4.05;1.30;;;9.20;52.20;;;;;;7387186;19;20007;-70
2022/09/28 04:34:50;;;;;;;4.82;1.23;;;9.20;52.80;;;;;;7386759;19;20010;-70
2022/09/28 04:37:19;;;;;;;2.03;1.17;;;9.20;52.40;;;;;;7378206;19;20348;-70
2022/09/28 04:39:49;;;;;;;5.18;1.20;;;9.10;52.40;;;;;;7386753;19;20018;-70
2022/09/28 04:42:19;;;;;;;5.72;1.77;;;9.20;52.70;;;;;;7387986;19;20031;-70
2022/09/28 04:44:49;;;;;;;2.95;1.35;;;9.20;53.20;;;;;;7389241;19;20030;-70
2022/09/28 04:47:21;;;;;;;5.63;1.63;;;9.10;52.50;;;;;;7378849;19;20022;-70
2022/09/28 04:49:51;;;;;;;3.08;1.45;;;9.10;52.90;;;;;;7384300;19;20473;-70
2022/09/28 04:52:21;;;;;;;3.22;1.63;;;9.10;52.90;;;;;;7387332;19;20491;-70
2022/09/28 04:54:50;;;;;;;3.92;1.20;;;9.20;53.70;;;;;;7388597;19;20018;-70
2022/09/28 04:57:20;;;;;;;4.43;1.08;;;9.20;53.70;;;;;;7379253;19;20054;-71
2022/09/28 04:59:50;;;;;;;3.13;1.10;;;9.10;53.70;;;;;;7386056;19;20058;-70
2022/09/28 05:02:23;;;;;;;5.82;1.45;;;9.20;53.70;;;;;;7389824;19;20043;-70
2022/09/28 05:04:54;;;;;;;3.42;1.10;;;9.20;53.80;;;;;;7387883;19;20021;-71
2022/09/28 05:07:23;;;;;;;2.63;1.13;;;9.10;53.70;;;;;;7383556;19;20011;-70
2022/09/28 05:09:54;;;;;;;4.25;1.27;;;9.10;53.70;;;;;;7386236;19;20018;-71
2022/09/28 05:12:23;;;;;;;2.55;1.35;;;9.10;53.70;;;;;;7387390;19;20017;-70
2022/09/28 05:14:53;;;;;;;3.22;1.13;;;9.10;53.70;;;;;;7385726;19;20023;-70
2022/09/28 05:17:25;;;;;;;3.15;1.15;;;9.10;53.70;;;;;;7389058;19;20014;-70
2022/09/28 05:19:55;;;;;;;3.55;1.42;;;9.10;53.70;;;;;;7385760;19;20015;-70
2022/09/28 05:22:25;;;;;;;3.08;1.20;;;9.10;53.70;;;;;;7386879;19;20015;-70
2022/09/28 05:24:57;;;;;;;3.40;1.27;;;9.00;53.60;;;;;;7386907;19;20749;-70
2022/09/28 05:27:26;;;;;;;1.92;1.00;;;9.00;53.60;;;;;;7384042;19;20025;-70
2022/09/28 05:29:56;;;;;;;2.63;1.10;;;9.00;53.70;;;;;;7385967;19;20010;-71
2022/09/28 05:32:28;;;;;;;4.18;1.23;;;9.00;53.60;;;;;;7386492;19;20014;-71
2022/09/28 05:34:59;;;;;;;3.33;1.20;;;9.00;53.60;;;;;;7384833;19;20014;-71
2022/09/28 05:37:30;;;;;;;7.25;1.80;;;9.00;53.70;;;;;;7383291;19;20018;-70
2022/09/28 05:39:59;;;;;;;5.13;1.02;;;9.00;54.00;;;;;;7385850;19;20018;-70
2022/09/28 05:42:29;;;;;;;3.08;1.88;;;8.90;53.50;;;;;;7386154;19;20018;-69
2022/09/28 05:44:59;;;;;;;6.47;1.55;;;9.00;54.00;;;;;;7386583;19;20011;-70
2022/09/28 05:47:32;;;;;;;3.83;1.48;;;9.00;54.20;;;;;;7390516;19;20544;-70
2022/09/28 05:50:01;;;;;;;3.70;1.30;;;9.00;53.80;;;;;;7392795;19;20018;-70
2022/09/28 05:52:32;;;;;;;3.05;1.20;;;9.00;54.30;;;;;;7393297;19;20054;-71
2022/09/28 05:55:02;;;;;;;3.85;1.30;;;9.00;53.70;;;;;;7390732;19;20049;-71
2022/09/28 05:57:32;;;;;;;4.78;1.70;;;9.00;54.60;;;;;;7390129;19;20091;-71
2022/09/28 06:00:02;;;;;;;2.88;1.70;;;9.00;54.50;;;;;;7392544;19;20022;-71
2022/09/28 06:02:34;;;;;;;4.72;1.80;;;9.00;54.90;;;;;;7390711;19;20035;-70
2022/09/28 06:05:04;;;;;;;4.65;2.20;;;9.00;54.90;;;;;;7392754;19;20015;-70
2022/09/28 06:07:34;;;;;;;4.68;1.70;;;9.00;54.70;;;;;;7389705;19;20470;-70
2022/09/28 06:10:04;;;;;;;5.45;2.20;;;9.10;55.10;;;;;;7392766;19;20044;-70
2022/09/28 06:12:35;;;;;;;7.05;2.08;;;9.00;54.70;;;;;;7392755;19;20021;-71
2022/09/28 06:15:06;;;;;;;4.65;2.30;;;9.00;54.60;;;;;;7392431;19;20046;-70
2022/09/28 06:17:38;;;;;;;7.45;2.22;;;9.00;54.40;;;;;;7391729;19;20518;-72
2022/09/28 06:20:09;;;;;;;5.55;2.30;;;9.10;54.70;;;;;;7391799;19;20019;-70
2022/09/28 06:22:39;;;;;;;7.50;2.38;;;9.10;54.70;;;;;;7390679;19;20021;-71
2022/09/28 06:25:10;;;;;;;4.05;2.28;;;9.10;55.10;;;;;;7391965;19;20022;-71
2022/09/28 06:27:41;;;;;;;5.70;2.28;;;9.10;55.20;;;;;;7388579;19;20098;-71
2022/09/28 06:30:11;;;;;;;9.73;3.03;;;9.10;55.40;;;;;;7392159;19;20606;-71
2022/09/28 06:32:44;;;;;;;7.22;2.95;;;9.10;55.30;;;;;;7394494;19;20018;-70
2022/09/28 06:35:14;;;;;;;4.88;2.92;;;9.20;55.70;;;;;;7388569;19;20045;-70
2022/09/28 06:37:46;;;;;;;8.63;3.80;;;9.30;56.00;;;;;;7389134;19;20011;-71
2022/09/28 06:40:16;;;;;;;42.42;4.55;;;9.30;56.20;;;;;;7391712;19;20131;-71
2022/09/28 06:42:46;;;;;;;6.63;3.83;;;9.30;56.20;;;;;;7391867;19;20082;-71
2022/09/28 06:45:20;;;;;;;7.47;3.60;;;9.30;56.40;;;;;;7391542;19;20020;-71
2022/09/28 06:47:57;;;;;;;8.00;4.05;;;9.30;56.20;;;;;;7388427;19;20020;-71
2022/09/28 06:50:28;;;;;;;11.38;4.25;;;9.30;56.30;;;;;;7391445;19;20015;-72
2022/09/28 06:52:58;;;;;;;7.13;3.67;;;9.40;56.40;;;;;;7391814;19;20039;-72
2022/09/28 06:55:29;;;;;;;7.13;3.47;;;9.40;55.90;;;;;;7389413;19;20046;-71
2022/09/28 06:58:00;;;;;;;5.15;3.70;;;9.30;55.60;;;;;;7387555;19;20015;-71
2022/09/28 07:00:32;;;;;;;7.72;3.80;;;9.40;56.20;;;;;;7390673;19;20035;-71
2022/09/28 07:03:08;;;;;;;5.53;3.60;;;9.40;56.20;;;;;;7391089;19;20507;-71
2022/09/28 07:05:42;;;;;;;7.22;3.88;;;9.60;56.70;;;;;;7390727;19;20023;-71
2022/09/28 07:08:12;;;;;;;8.30;4.10;;;9.60;56.20;;;;;;7390394;19;20025;-69
2022/09/28 07:10:44;;;;;;;10.57;4.05;;;9.60;54.90;;;;;;7393187;19;20015;-71
2022/09/28 07:13:15;;;;;;;10.95;4.05;;;9.70;55.60;;;;;;7393057;19;20030;-70
2022/09/28 07:16:05;;;;;;;8.55;3.58;;;9.90;55.90;;;;;;7392535;19;20047;-71
2022/09/28 07:18:37;;;;;;;9.10;3.53;;;9.90;54.40;;;;;;7392269;19;20013;-70
2022/09/28 07:21:08;;;;;;;5.93;3.55;;;9.70;52.80;;;;;;7391555;19;20019;-71
2022/09/28 07:23:48;;;;;;;11.43;3.92;;;9.80;53.80;;;;;;7392593;19;20026;-71
2022/09/28 07:26:24;;;;;;;9.60;5.03;;;10.00;53.50;;;;;;7392127;19;20423;-71
2022/09/28 07:28:54;;;;;;;9.25;5.57;;;9.90;52.80;;;;;;7392599;19;20013;-70
2022/09/28 07:31:26;;;;;;;8.68;4.32;;;10.00;52.40;;;;;;7390822;19;20030;-70
2022/09/28 07:33:59;;;;;;;7.63;4.75;;;10.00;51.50;;;;;;7392299;19;20025;-70
2022/09/28 07:36:30;;;;;;;9.27;4.63;;;10.00;51.40;;;;;;7391419;19;20042;-70
2022/09/28 07:39:00;;;;;;;5.65;3.67;;;10.10;50.20;;;;;;7393594;19;20007;-71
2022/09/28 07:41:31;;;;;;;7.57;3.92;;;10.10;50.80;;;;;;7392518;19;20372;-70
2022/09/28 07:44:04;;;;;;;8.50;3.67;;;10.20;51.60;;;;;;7388527;19;20035;-70
2022/09/28 07:46:35;;;;;;;7.88;3.90;;;10.10;48.60;;;;;;7387845;19;20047;-71
2022/09/28 07:49:08;;;;;;;8.43;4.75;;;10.10;47.30;;;;;;7393292;19;20082;-71
2022/09/28 07:51:42;;;;;;;7.80;3.70;;;10.10;49.10;;;;;;7392723;19;20009;-71
2022/09/28 07:54:12;;;;;;;7.40;3.97;;;10.10;47.80;;;;;;7388802;19;20032;-71
2022/09/28 07:56:41;;;;;;;6.93;4.10;;;10.10;49.40;;;;;;7386762;19;20043;-70
2022/09/28 07:59:16;;;;;;;6.00;3.38;;;10.10;48.30;;;;;;7389156;19;20038;-69
2022/09/28 08:01:48;;;;;;;4.60;3.50;;;10.00;46.70;;;;;;7389881;19;20494;-72
2022/09/28 08:04:20;;;;;;;8.32;4.00;;;10.10;46.10;;;;;;7392871;19;20014;-71
2022/09/28 08:06:50;;;;;;;9.30;4.32;;;10.30;47.40;;;;;;7389652;19;20042;-70
2022/09/28 08:09:20;;;;;;;8.10;3.63;;;10.20;44.50;;;;;;7390806;19;20010;-71
2022/09/28 08:11:50;;;;;;;7.85;3.67;;;10.30;44.80;;;;;;7392662;19;20034;-70
2022/09/28 08:14:20;;;;;;;6.90;3.92;;;10.40;44.60;;;;;;7388488;19;20523;-71
2022/09/28 08:16:49;;;;;;;7.18;3.88;;;10.40;42.90;;;;;;7389117;19;20046;-70
2022/09/28 08:19:24;;;;;;;7.43;4.00;;;10.40;41.70;;;;;;7390402;19;20105;-71
2022/09/28 08:21:51;;;;;;;15.02;7.60;;;10.40;43.20;;;;;;7391560;19;20019;-71
2022/09/28 08:24:23;;;;;;;9.77;4.93;;;10.60;43.20;;;;;;7391763;19;20044;-70
2022/09/28 08:26:54;;;;;;;7.70;3.22;;;10.40;40.90;;;;;;7389585;19;20011;-70
2022/09/28 08:29:24;;;;;;;7.35;3.28;;;10.30;39.20;;;;;;7391016;19;20042;-71
2022/09/28 08:31:53;;;;;;;7.05;3.05;;;10.20;40.70;;;;;;7391153;19;20011;-70
2022/09/28 08:34:32;;;;;;;6.53;3.38;;;10.20;37.90;;;;;;7388986;19;20014;-70
2022/09/28 08:37:02;;;;;;;10.00;3.60;;;10.30;40.00;;;;;;7388907;19;20026;-71
2022/09/28 08:39:33;;;;;;;9.98;3.35;;;10.30;39.00;;;;;;7389483;19;20010;-71
2022/09/28 08:42:17;;;;;;;8.88;3.35;;;10.10;35.00;;;;;;7390956;19;20018;-71
2022/09/28 08:44:49;;;;;;;9.68;3.13;;;10.20;38.60;;;;;;7390211;19;20034;-71
2022/09/28 08:50:13;;;;;;;5.22;3.38;;;10.50;38.20;;;;;;7390171;19;20017;-71
2022/09/28 08:52:44;;;;;;;7.50;3.38;;;10.60;38.00;;;;;;7390476;19;20090;-70
2022/09/28 08:55:20;;;;;;;7.35;3.42;;;10.70;35.40;;;;;;7390298;19;20022;-70
2022/09/28 08:57:56;;;;;;;6.28;2.88;;;10.60;30.10;;;;;;7389244;19;20463;-71
2022/09/28 09:00:34;;;;;;;3.40;2.75;;;10.80;31.60;;;;;;7390887;19;20021;-70
2022/09/28 09:03:08;;;;;;;5.72;2.70;;;10.70;31.40;;;;;;7387000;19;20039;-71
2022/09/28 09:05:54;;;;;;;5.20;3.25;;;10.80;27.30;;;;;;7386750;19;20018;-71
2022/09/28 09:08:35;;;;;;;6.40;2.80;;;10.80;24.80;;;;;;7386677;19;20039;-71
2022/09/28 09:11:19;;;;;;;6.32;3.20;;;10.90;28.90;;;;;;7387365;19;20022;-71
2022/09/28 09:14:20;;;;;;;6.22;2.92;;;11.00;26.40;;;;;;7386498;19;20014;-70
2022/09/28 09:17:02;;;;;;;5.97;2.95;;;10.80;24.90;;;;;;7385882;19;20023;-71
2022/09/28 09:19:39;;;;;;;5.60;3.20;;;11.00;27.90;;;;;;7390796;19;20025;-71
2022/09/28 09:22:18;;;;;;;6.10;3.75;;;11.20;27.50;;;;;;7398144;19;20027;-70
2022/09/28 09:24:52;;;;;;;4.80;3.10;;;11.20;27.80;;;;;;7398352;19;20006;-70
2022/09/28 09:27:39;;;;;;;8.05;2.67;;;11.20;25.10;;;;;;7395311;19;20007;-71
2022/09/28 09:30:12;;;;;;;6.85;3.10;;;11.00;21.40;;;;;;7396761;19;20006;-71
2022/09/28 09:33:06;;;;;;;6.65;3.17;;;11.30;21.10;;;;;;7397999;19;20006;-71
2022/09/28 09:35:59;;;;;;;4.22;2.60;;;11.30;22.60;;;;;;7395817;19;20010;-71
2022/09/28 09:38:47;;;;;;;5.90;3.05;;;11.00;18.80;;;;;;7396860;19;20062;-69
2022/09/28 09:41:26;;;;;;;3.67;2.50;;;11.30;19.60;;;;;;7393173;19;20530;-70
2022/09/28 09:44:19;;;;;;;7.63;2.65;;;11.00;17.60;;;;;;7392018;19;20028;-70
2022/09/28 09:46:54;;;;;;;6.95;2.90;;;11.30;20.30;;;;;;7390676;19;20046;-69
2022/09/28 09:49:28;;;;;;;4.88;2.30;;;11.60;19.80;;;;;;7392916;19;20023;-69
2022/09/28 09:52:04;;;;;;;5.32;2.50;;;11.30;16.50;;;;;;7393902;19;20022;-69
2022/09/28 09:54:39;;;;;;;4.63;2.30;;;11.40;16.70;;;;;;7393076;19;20003;-68
2022/09/28 09:57:16;;;;;;;3.72;2.47;;;11.40;15.90;;;;;;7389562;19;20021;-69
2022/09/28 09:59:48;;;;;;;5.13;2.55;;;11.50;16.10;;;;;;7392183;19;20018;-69
2022/09/28 10:02:25;;;;;;;3.85;2.58;;;11.60;14.00;;;;;;7394709;19;20485;-69
2022/09/28 10:04:59;;;;;;;5.05;2.45;;;11.40;12.00;;;;;;7397668;19;20336;-69
2022/09/28 10:07:36;;;;;;;3.20;2.43;;;11.50;10.60;;;;;;7388250;19;20412;-70
2022/09/28 10:10:21;;;;;;;5.47;2.58;;;11.50;13.70;;;;;;7392153;19;20025;-69
2022/09/28 10:12:53;;;;;;;5.50;3.20;;;11.50;11.40;;;;;;7395293;19;20440;-69
2022/09/28 10:15:26;;;;;;;9.98;4.03;;;12.20;12.10;;;;;;7396071;19;20229;-68
2022/09/28 10:17:58;;;;;;;11.57;5.18;;;12.40;9.40;;;;;;7389029;19;20043;-69
2022/09/28 10:20:30;;;;;;;4.72;3.10;;;12.50;6.70;;;;;;7387912;19;20013;-69
2022/09/28 10:23:03;;;;;;;7.05;2.72;;;12.30;6.90;;;;;;7392412;19;20361;-69
2022/09/28 10:25:39;;;;;;;7.18;3.65;;;12.40;1.90;;;;;;7391832;19;20025;-69
2022/09/28 10:28:19;;;;;;;4.78;2.88;;;12.30;2.20;;;;;;7391476;19;20014;-68
2022/09/28 10:30:49;;;;;;;5.18;2.65;;;12.20;1.00;;;;;;7391090;19;20010;-69
2022/09/28 10:33:33;;;;;;;6.47;2.80;;;12.10;1.00;;;;;;7391921;19;20460;-68
2022/09/28 10:36:06;;;;;;;6.43;2.88;;;12.30;1.00;;;;;;7391260;19;20079;-68
2022/09/28 10:38:36;;;;;;;4.82;2.50;;;12.30;1.00;;;;;;7389132;19;20344;-69
2022/09/28 10:41:16;;;;;;;6.60;3.13;;;12.10;1.00;;;;;;7391082;19;20014;-69
2022/09/28 10:44:04;;;;;;;5.45;2.33;;;12.60;1.00;;;;;;7391529;19;20022;-69
2022/09/28 10:46:36;;;;;;;5.22;2.30;;;12.30;1.00;;;;;;7389154;19;20242;-68
2022/09/28 10:49:13;;;;;;;4.78;2.33;;;12.20;1.00;;;;;;7391648;19;20047;-69
2022/09/28 10:51:45;;;;;;;4.63;2.60;;;12.20;1.00;;;;;;7391530;19;20025;-69
2022/09/28 10:54:17;;;;;;;7.22;2.35;;;12.20;1.00;;;;;;7391836;19;20014;-69
2022/09/28 10:56:51;;;;;;;3.45;2.03;;;12.60;1.00;;;;;;7388936;19;20089;-69
2022/09/28 10:59:26;;;;;;;3.13;1.90;;;12.30;1.00;;;;;;7390205;19;20010;-67
2022/09/28 11:01:57;;;;;;;3.13;2.33;;;12.40;1.00;;;;;;7391056;19;20031;-68
2022/09/28 11:04:30;;;;;;;4.53;2.20;;;12.50;1.00;;;;;;7391110;19;20019;-68
2022/09/28 11:07:00;;;;;;;3.70;2.03;;;12.20;1.00;;;;;;7388677;19;20011;-68
2022/09/28 11:09:32;;;;;;;4.82;2.20;;;12.00;1.00;;;;;;7389395;19;20014;-70
2022/09/28 11:12:07;;;;;;;4.03;2.03;;;12.40;1.00;;;;;;7389743;19;20017;-68
2022/09/28 11:14:40;;;;;;;4.28;2.28;;;12.50;1.00;;;;;;7391680;19;20014;-69
2022/09/28 11:17:19;;;;;;;3.75;2.05;;;12.80;1.00;;;;;;7391892;19;20050;-68
2022/09/28 11:19:49;;;;;;;7.05;4.82;;;12.90;1.00;;;;;;7388023;19;20042;-68
2022/09/28 11:22:24;;;;;;;4.97;2.30;;;13.10;1.00;;;;;;7389356;19;20006;-68
2022/09/28 11:25:13;;;;;;;5.97;2.03;;;13.10;1.00;;;;;;7388676;19;20021;-69
2022/09/28 11:27:58;;;;;;;3.83;2.10;;;13.00;1.00;;;;;;7382715;19;20525;-69
2022/09/28 11:30:31;;;;;;;4.93;2.30;;;13.20;1.00;;;;;;7382313;19;20014;-69
2022/09/28 11:33:05;;;;;;;6.43;2.20;;;12.90;1.00;;;;;;7389464;19;20346;-69
2022/09/28 11:35:46;;;;;;;3.53;1.70;;;13.20;1.00;;;;;;7389665;19;20791;-68
2022/09/28 11:38:34;;;;;;;3.40;1.60;;;13.10;1.00;;;;;;7387961;19;20386;-68
2022/09/28 11:41:30;;;;;;;3.47;1.83;;;13.50;1.00;;;;;;7386891;19;20014;-68
2022/09/28 11:44:24;;;;;;;8.18;2.15;;;13.00;1.00;;;;;;7386214;19;20010;-68
2022/09/28 11:47:14;;;;;;;4.30;1.77;;;13.10;1.00;;;;;;7385703;19;20026;-68
2022/09/28 11:49:47;;;;;;;3.72;1.58;;;13.10;1.00;;;;;;7389353;19;20474;-69
2022/09/28 11:52:24;;;;;;;4.28;1.83;;;13.10;1.00;;;;;;7386289;19;20455;-69
2022/09/28 11:54:58;;;;;;;5.80;1.80;;;13.20;1.00;;;;;;7389945;19;20041;-68
2022/09/28 11:57:30;;;;;;;;;;;13.20;1.00;;;;;;7387477;19;20021;-69
2022/09/28 12:00:07;;;;;;;4.65;1.67;;;13.10;1.00;;;;;;7382251;19;20339;-68
2022/09/28 12:02:43;;;;;;;3.83;1.50;;;13.30;1.00;;;;;;7388192;19;20011;-68
2022/09/28 12:05:24;;;;;;;6.32;1.90;;;13.00;1.00;;;;;;7390709;19;20015;-72
2022/09/28 12:08:01;;;;;;;2.58;1.42;;;13.20;1.00;;;;;;7387768;19;20499;-74
2022/09/28 12:10:37;;;;;;;4.63;1.52;;;12.80;1.00;;;;;;7382577;19;20010;-69
2022/09/28 12:13:17;;;;;;;4.38;1.60;;;13.10;1.00;;;;;;7389602;19;20010;-71
2022/09/28 12:15:54;;;;;;;3.03;1.70;;;13.10;1.00;;;;;;7387114;19;20026;-71
2022/09/28 12:18:50;;;;;;;5.00;1.60;;;13.30;1.00;;;;;;7385170;19;20012;-70
2022/09/28 12:21:39;;;;;;;4.40;2.05;;;13.60;1.00;;;;;;7380902;19;20088;-71
2022/09/28 12:24:15;;;;;;;4.63;1.58;;;13.20;1.00;;;;;;7387696;19;20019;-70
2022/09/28 12:26:53;;;;;;;6.43;1.50;;;13.50;1.00;;;;;;7387298;19;20479;-70
2022/09/28 12:29:27;;;;;;;2.72;1.45;;;13.60;1.00;;;;;;7388199;19;20019;-70
2022/09/28 12:32:11;;;;;;;2.60;1.17;;;13.40;1.00;;;;;;7380206;19;20051;-70
2022/09/28 12:34:43;;;;;;;2.90;1.38;;;13.50;1.00;;;;;;7388042;19;20046;-69
2022/09/28 12:37:33;;;;;;;3.78;1.42;;;13.10;1.00;;;;;;7385016;19;20022;-69
2022/09/28 12:40:32;;;;;;;4.20;1.60;;;13.10;1.00;;;;;;7383752;19;20051;-69
2022/09/28 12:43:16;;;;;;;4.30;1.40;;;13.00;1.00;;;;;;7387914;19;20048;-70
2022/09/28 12:46:01;;;;;;;2.55;1.10;;;13.40;1.00;;;;;;7386455;19;20010;-71
2022/09/28 12:49:17;;;;;;;2.25;1.10;;;13.50;1.00;;;;;;7388461;19;20015;-70
2022/09/28 12:52:21;;;;;;;3.67;1.20;;;13.50;1.00;;;;;;7382914;19;20078;-70
2022/09/28 12:55:13;;;;;;;9.25;1.65;;;13.60;1.00;;;;;;7391312;19;20018;-70
2022/09/28 12:57:54;;;;;;;1.98;1.48;;;13.50;1.00;;;;;;7392981;19;20015;-70
2022/09/28 13:00:26;;;;;;;3.05;1.52;;;13.70;1.00;;;;;;7389373;19;20007;-70
2022/09/28 13:03:22;;;;;;;2.47;1.40;;;13.30;1.00;;;;;;7396580;19;20018;-70
2022/09/28 13:06:18;;;;;;;1.85;1.30;;;13.60;1.00;;;;;;7392692;19;20010;-70
2022/09/28 13:09:00;;;;;;;2.90;1.40;;;13.80;1.00;;;;;;7394299;19;20590;-69
2022/09/28 13:11:35;;;;;;;3.60;1.33;;;13.70;1.00;;;;;;7389075;19;20013;-69
2022/09/28 13:14:38;;;;;;;3.97;1.27;;;13.60;1.00;;;;;;7394952;19;20010;-69
2022/09/28 13:17:20;;;;;;;7.10;1.40;;;13.60;1.00;;;;;;7392673;19;20018;-68
2022/09/28 13:19:56;;;;;;;5.25;1.48;;;13.60;1.00;;;;;;7393222;19;20051;-70
2022/09/28 13:22:37;;;;;;;7.57;1.35;;;13.50;1.00;;;;;;7392905;19;20010;-70
2022/09/28 13:25:19;;;;;;;4.75;1.40;;;13.40;1.00;;;;;;7395454;19;20356;-70
2022/09/28 13:27:55;;;;;;;3.33;1.42;;;13.30;1.00;;;;;;7392393;19;20021;-71
2022/09/28 13:30:25;;;;;;;3.70;1.50;;;13.50;1.00;;;;;;7388429;19;20039;-70
2022/09/28 13:32:57;;;;;;;3.85;1.73;;;13.50;1.00;;;;;;7395591;19;20011;-70
2022/09/28 13:35:27;;;;;;;2.35;1.30;;;13.50;1.00;;;;;;7394629;19;20014;-70
2022/09/28 13:38:27;;;;;;;4.65;1.58;;;13.80;1.00;;;;;;7391358;19;20470;-69
2022/09/28 13:41:16;;;;;;;3.17;1.17;;;13.50;1.00;;;;;;7386266;19;20034;-70